Airfield :
LOGIN :

Register | Disclaimer

   EN    FR    IT 

 










Legend :    VFR   Marginal VFR   IFR   Intensive IFR   Very Intensive IFR
Visi :
Ceiling :
>= 8 km
>= 3000ft
5 to 8 km
1000 to 3000 ft
1500m to 5 km
500 to 1000 ft
800 to 1500m
200 to 500 ft
< 800m
< 200 ft
Symbols :   Thunderstorms  Fog  Heavy snow  Heavy precipitations  Wind > 20 kt
SIGMETs :     Misc.  Thunderstorms  Icing  Turbulence  Mountain Waves  Volcanic Ashes






- Airport Elevation : 59 ft
- IATA code : TSF


LIPH - Treviso

CURRENT METAR :
  • 171120Z VRB03KT 9999 FEW050 16/06 Q1004

EXPIRED METARs :
  • 171050Z AUTO VRB03KT 9999 FEW150/// 16/07 Q1004
  • 171020Z AUTO VRB02KT 9999 NCD 15/07 Q1004
  • 170950Z AUTO VRB02KT 9999 NCD 14/06 Q1005
  • 170920Z AUTO VRB02KT 9999 SCT130/// 13/05 Q1005
  • 170850Z AUTO VRB03KT 9999 BKN130/// 13/06 Q1005
  • 170820Z AUTO 21003KT 160V330 9999 FEW150/// SCT190/// 13/06 Q1005
  • 170750Z AUTO VRB02KT 9999 SCT200/// 12/05 Q1005
  • 170720Z AUTO 13003KT 070V190 9999 NCD 11/06 Q1005

TAF TAF LIPH
Valid from the 17 at 12:00 until the 18 at 12:00 UTC


171100Z 1712/1812 VRB05KT 9999 FEW030
PROB40
TEMPO 1713/1720 SHRA
BECMG 1719/1721 04010KT



MET'MAP, your aeronautical weather chart ! - Copyright ORBIFLY December 2007 - Disclaimer

ORBIFLY MET'MAP TEAM :

Programming & Development : Alexandra Zaïnal
Original concept : Baudouin d'Aumeries
Technical & hardware support : Manuel Goepfert
Assistance : Marc-Olivier Méhu




SOURCES & CREDITS :

   NOAA